Forside
METAR-TAF:

METAR-TAF

Lufthavne :

Beijing Capital International Airport

Beijing, Kina

Breddekreds: 39-56N, længdekreds: 116-17E, højde: 55 m

Aktuelle vejr

Denne rapport blev lavet for 15 minutter siden, kl. 02:30 UTC
Vind 8 kt fra nordnordøst, varierende mellem nordnordvest og østnordøst
Temperatur 30°C
Fugtighed 46%
Tryk 1015 hPa
Sigt 10 km eller mere
ingen skyer under 1500m og ingen cumulonimbus

METAR: ZBAA 160230Z 03004MPS 340V060 CAVOK 30/17 Q1015 NOSIG

Tid: 10:45 (02:45 UTC)

Vejrudsigter

Denne rapport blev lavet for 5 timer og 15 minutter siden, kl. 21:30 UTC
Foreløbig gælder fra 16 på 00 UTC til 16 på 24 UTC
Vind 8 kt fra østsydøst
Sigt: 6000 m

TAF: ZBAA 152130Z 1600/1624 12004MPS 6000 NSC TX30/1606Z TN22/1621Z

Vejrobservationer og prognoser fra mere end 4000 lufthavne (METAR og TAF).

De gule og røde prikker repræsenterer de meteorologiske stationer.

Flyt musen over at se navnet på stationen.

Så klik over at se vejr observationer og prognoser.

At skifte det kort: Klik på de grønne knapper med et sort kors for at zoome ind; på den grønne knap med en bindestreg for at zoome ud; eller på de grønne pile for tilstødende kort.


METAR-TAF: